Time;durP1;ratioP1;P1;durP2;ratioP2;P2;SDS_P1;SDS_P2;PMS_P1;PMS_P2;Temp;Humidity;BMP_temperature;BMP_pressure;BME280_temperature;BME280_humidity;BME280_pressure;Samples;Min_cycle;Max_cycle;Signal;HPM_P1;HPM_P2
2021/05/13 00:00:58;;;;;;;8.25;5.60;;;11.50;27.40;;;;;;5051961;28;20106;-67
2021/05/13 00:03:46;;;;;;;9.15;5.60;;;11.60;26.80;;;;;;5054533;28;20048;-66
2021/05/13 00:06:37;;;;;;;7.15;5.38;;;11.50;28.00;;;;;;5062451;28;20071;-65
2021/05/13 00:09:25;;;;;;;10.25;6.55;;;11.50;29.00;;;;;;5054996;28;20056;-65
2021/05/13 00:12:27;;;;;;;10.52;6.15;;;11.50;29.60;;;;;;5055548;28;20040;-66
2021/05/13 00:15:18;;;;;;;10.30;6.18;;;11.40;30.90;;;;;;5041991;28;20049;-65
2021/05/13 00:18:06;;;;;;;8.48;5.50;;;11.30;31.30;;;;;;5053823;28;20669;-65
2021/05/13 00:20:56;;;;;;;15.25;6.32;;;11.30;31.90;;;;;;5053883;28;20060;-65
2021/05/13 00:23:44;;;;;;;11.40;6.30;;;11.30;30.60;;;;;;5053781;28;20515;-64
2021/05/13 00:26:36;;;;;;;10.93;6.50;;;11.30;32.10;;;;;;5041170;28;20044;-66
2021/05/13 00:29:27;;;;;;;10.00;6.50;;;11.30;32.50;;;;;;5044448;28;20441;-66
2021/05/13 00:32:18;;;;;;;10.52;6.55;;;11.20;32.10;;;;;;5055243;28;20036;-66
2021/05/13 00:35:07;;;;;;;12.13;6.10;;;11.10;33.90;;;;;;5044015;28;20045;-66
2021/05/13 00:37:55;;;;;;;11.00;6.50;;;11.10;35.80;;;;;;5056579;28;20047;-66
2021/05/13 00:40:42;;;;;;;13.05;6.82;;;11.00;36.50;;;;;;5058527;28;20691;-66
2021/05/13 00:43:30;;;;;;;10.20;6.80;;;11.00;37.90;;;;;;5060788;28;20048;-66
2021/05/13 00:46:21;;;;;;;11.15;7.15;;;11.00;37.90;;;;;;5050211;28;20095;-66
2021/05/13 00:49:11;;;;;;;9.70;7.05;;;11.00;38.50;;;;;;5049265;28;20497;-64
2021/05/13 00:51:59;;;;;;;15.23;8.02;;;11.00;38.70;;;;;;5053454;28;20040;-65
2021/05/13 00:54:48;;;;;;;10.38;7.47;;;11.00;38.80;;;;;;5056045;28;20059;-65
2021/05/13 00:57:39;;;;;;;10.98;7.68;;;11.00;38.30;;;;;;5041876;28;20036;-65
2021/05/13 01:00:40;;;;;;;13.95;7.57;;;11.00;40.10;;;;;;5052917;28;20056;-65
2021/05/13 01:03:29;;;;;;;10.27;7.28;;;11.00;40.80;;;;;;5054102;28;20048;-66
2021/05/13 01:06:17;;;;;;;14.32;7.90;;;11.00;40.90;;;;;;5058968;28;20404;-66
2021/05/13 01:09:08;;;;;;;12.98;7.78;;;11.10;38.10;;;;;;5053536;28;20044;-66
2021/05/13 01:11:58;;;;;;;11.95;7.50;;;10.90;39.80;;;;;;5042732;28;20052;-66
2021/05/13 01:14:48;;;;;;;13.35;7.68;;;11.00;41.00;;;;;;5059456;28;20101;-65
2021/05/13 01:17:43;;;;;;;11.48;6.88;;;11.00;41.70;;;;;;5052100;28;20048;-66
2021/05/13 01:20:34;;;;;;;10.30;7.90;;;11.10;39.00;;;;;;5059416;28;20124;-66
2021/05/13 01:23:24;;;;;;;8.73;7.07;;;11.20;38.10;;;;;;5053607;28;20041;-66
2021/05/13 01:26:14;;;;;;;12.10;7.63;;;11.10;38.00;;;;;;5033299;28;20052;-65
2021/05/13 01:29:03;;;;;;;16.27;6.70;;;11.00;40.40;;;;;;5057251;28;20041;-66
2021/05/13 01:31:52;;;;;;;13.15;6.63;;;11.00;40.40;;;;;;5057556;28;20048;-66
2021/05/13 01:34:40;;;;;;;16.25;7.78;;;11.00;40.60;;;;;;5059633;28;20391;-66
2021/05/13 01:37:28;;;;;;;16.02;7.38;;;10.90;40.80;;;;;;5059110;28;20049;-66
2021/05/13 01:40:18;;;;;;;11.30;7.18;;;10.80;41.30;;;;;;5060827;28;20052;-66
2021/05/13 01:43:06;;;;;;;13.63;7.03;;;10.80;42.50;;;;;;5059662;28;20111;-67
2021/05/13 01:45:58;;;;;;;18.23;8.35;;;10.90;42.60;;;;;;5052016;28;20107;-67
2021/05/13 01:48:46;;;;;;;11.13;7.20;;;10.80;42.40;;;;;;5061924;28;20037;-66
2021/05/13 01:51:42;;;;;;;13.40;7.43;;;10.80;42.40;;;;;;5050085;28;20051;-67
2021/05/13 01:54:30;;;;;;;18.10;8.52;;;10.80;43.50;;;;;;5046706;28;20059;-66
2021/05/13 01:57:19;;;;;;;9.32;7.18;;;10.80;42.20;;;;;;5046925;28;20491;-66
2021/05/13 02:00:08;;;;;;;10.38;7.45;;;10.80;42.00;;;;;;5063726;28;20120;-64
2021/05/13 02:02:55;;;;;;;12.43;7.65;;;10.80;42.40;;;;;;5060798;28;20510;-66
2021/05/13 02:05:43;;;;;;;9.80;6.93;;;10.80;41.90;;;;;;5061758;28;20053;-65
2021/05/13 02:08:32;;;;;;;10.55;6.82;;;10.80;42.30;;;;;;5056148;28;20039;-65
2021/05/13 02:11:20;;;;;;;10.07;6.97;;;10.90;41.90;;;;;;5060558;28;20041;-65
2021/05/13 02:14:09;;;;;;;13.98;6.85;;;10.80;40.20;;;;;;5049769;28;20192;-67
2021/05/13 02:16:57;;;;;;;15.02;7.78;;;10.80;42.20;;;;;;5060606;28;20119;-66
2021/05/13 02:19:47;;;;;;;10.68;7.63;;;10.70;43.00;;;;;;5044891;28;20060;-66
2021/05/13 02:22:34;;;;;;;10.25;7.03;;;10.70;43.50;;;;;;5059918;28;20167;-66
2021/05/13 02:25:22;;;;;;;10.50;7.88;;;10.70;44.20;;;;;;5058139;28;20048;-66
2021/05/13 02:28:10;;;;;;;11.43;7.55;;;10.80;43.40;;;;;;5060286;28;20067;-66
2021/05/13 02:30:59;;;;;;;13.60;8.85;;;10.80;44.40;;;;;;5049349;28;20048;-66
2021/05/13 02:33:47;;;;;;;10.57;7.68;;;10.70;44.20;;;;;;5046625;28;20199;-64
2021/05/13 02:36:36;;;;;;;18.63;8.40;;;10.70;45.40;;;;;;5058723;28;20041;-66
2021/05/13 02:39:24;;;;;;;14.27;7.57;;;10.70;45.10;;;;;;5061148;28;20045;-66
2021/05/13 02:42:14;;;;;;;11.07;7.80;;;10.80;43.70;;;;;;5054039;28;20417;-66
2021/05/13 02:45:07;;;;;;;10.48;7.43;;;10.80;43.80;;;;;;5043356;28;20394;-66
2021/05/13 02:47:58;;;;;;;10.85;9.00;;;10.80;43.40;;;;;;5058088;28;20041;-65
2021/05/13 02:50:46;;;;;;;11.18;7.95;;;10.70;44.60;;;;;;5064481;28;20049;-66
2021/05/13 02:53:34;;;;;;;14.00;8.18;;;10.70;45.70;;;;;;5063119;28;20070;-66
2021/05/13 02:56:22;;;;;;;10.65;8.00;;;10.60;45.90;;;;;;5059759;28;20045;-65
2021/05/13 02:59:11;;;;;;;10.50;7.53;;;10.60;45.90;;;;;;5056563;28;20519;-65
2021/05/13 03:01:58;;;;;;;12.30;8.55;;;10.60;46.00;;;;;;5059212;28;20621;-66
2021/05/13 03:04:48;;;;;;;10.82;7.70;;;10.70;47.10;;;;;;5066511;28;20048;-66
2021/05/13 03:07:45;;;;;;;12.02;8.10;;;10.70;46.70;;;;;;5062780;28;20040;-66
2021/05/13 03:10:42;;;;;;;13.25;7.85;;;10.60;46.80;;;;;;5063341;28;20044;-66
2021/05/13 03:13:29;;;;;;;11.52;8.07;;;10.50;46.70;;;;;;5061321;28;20115;-65
2021/05/13 03:16:17;;;;;;;13.30;7.82;;;10.50;47.50;;;;;;5063725;28;20053;-65
2021/05/13 03:19:10;;;;;;;14.95;8.77;;;10.50;48.60;;;;;;5060901;28;20540;-66
2021/05/13 03:22:02;;;;;;;16.50;8.95;;;10.40;48.40;;;;;;5061831;28;20416;-65
2021/05/13 03:24:53;;;;;;;10.50;7.85;;;10.40;48.70;;;;;;5057692;28;20067;-65
2021/05/13 03:27:47;;;;;;;15.93;8.23;;;10.50;48.30;;;;;;5058904;28;20447;-65
2021/05/13 03:30:37;;;;;;;12.85;8.10;;;10.60;47.40;;;;;;5067481;28;20519;-65
2021/05/13 03:33:25;;;;;;;10.20;7.82;;;10.50;46.50;;;;;;5060826;28;20076;-66
2021/05/13 03:36:13;;;;;;;9.00;7.13;;;10.50;47.70;;;;;;5063494;28;20055;-66
2021/05/13 03:39:06;;;;;;;10.10;7.53;;;10.30;48.20;;;;;;5063125;28;20048;-65
2021/05/13 03:41:55;;;;;;;13.77;7.95;;;10.30;49.70;;;;;;5064247;28;20044;-65
2021/05/13 03:44:44;;;;;;;11.43;8.35;;;10.30;50.90;;;;;;5063516;28;20170;-66
2021/05/13 03:47:32;;;;;;;12.75;8.50;;;10.40;50.90;;;;;;5058052;28;20044;-65
2021/05/13 03:50:20;;;;;;;13.70;8.63;;;10.50;48.90;;;;;;5046038;28;20045;-65
2021/05/13 03:53:09;;;;;;;12.02;7.60;;;10.40;47.70;;;;;;5060350;28;20052;-66
2021/05/13 03:55:57;;;;;;;13.98;8.63;;;10.40;48.60;;;;;;5061350;28;20095;-65
2021/05/13 03:58:50;;;;;;;12.63;8.65;;;10.40;48.70;;;;;;5044597;28;20051;-65
2021/05/13 04:01:46;;;;;;;11.93;7.82;;;10.40;48.70;;;;;;5060533;28;20060;-65
2021/05/13 04:04:34;;;;;;;9.73;8.00;;;10.40;49.00;;;;;;5061183;28;20132;-66
2021/05/13 04:07:22;;;;;;;13.95;7.63;;;10.40;47.70;;;;;;5060321;28;20041;-66
2021/05/13 04:10:11;;;;;;;11.50;8.10;;;10.40;48.50;;;;;;5062133;28;20080;-65
2021/05/13 04:13:02;;;;;;;14.98;8.85;;;10.50;47.70;;;;;;5062021;28;20053;-65
2021/05/13 04:16:01;;;;;;;13.70;8.63;;;10.60;45.90;;;;;;5059851;28;20044;-66
2021/05/13 04:18:49;;;;;;;14.20;8.82;;;10.70;44.30;;;;;;5054412;28;20119;-65
2021/05/13 04:21:37;;;;;;;16.48;8.40;;;10.70;44.10;;;;;;5056894;28;20170;-65
2021/05/13 04:24:25;;;;;;;16.17;8.35;;;10.60;43.50;;;;;;5047436;28;20048;-66
2021/05/13 04:27:13;;;;;;;10.25;7.72;;;10.50;45.80;;;;;;5056849;28;20114;-65
2021/05/13 04:30:02;;;;;;;13.65;8.65;;;10.40;45.70;;;;;;5063043;28;20041;-65
2021/05/13 04:32:50;;;;;;;12.75;8.73;;;10.30;46.70;;;;;;5061568;28;20138;-65
2021/05/13 04:35:39;;;;;;;12.82;8.30;;;10.20;48.60;;;;;;5062367;28;20696;-66
2021/05/13 04:38:27;;;;;;;14.70;8.18;;;10.30;49.30;;;;;;5060542;28;20045;-66
2021/05/13 04:41:15;;;;;;;12.60;8.52;;;10.10;48.70;;;;;;5059004;28;20064;-66
2021/05/13 04:44:05;;;;;;;12.98;7.80;;;10.20;49.50;;;;;;5059016;28;20052;-66
2021/05/13 04:46:58;;;;;;;15.70;8.10;;;10.30;49.50;;;;;;5047179;28;20048;-66
2021/05/13 04:49:50;;;;;;;12.07;8.67;;;10.30;49.40;;;;;;5063156;28;20191;-65
2021/05/13 04:52:39;;;;;;;14.55;8.43;;;10.30;48.40;;;;;;5062144;28;20048;-66
2021/05/13 04:55:27;;;;;;;10.82;7.97;;;10.40;47.80;;;;;;5055319;28;20483;-65
2021/05/13 04:58:15;;;;;;;13.75;9.00;;;10.50;46.40;;;;;;5044466;28;20139;-65
2021/05/13 05:01:03;;;;;;;11.05;7.55;;;10.40;45.70;;;;;;5059810;28;20163;-65
2021/05/13 05:03:51;;;;;;;10.95;8.00;;;10.50;46.60;;;;;;5058385;28;20058;-65
2021/05/13 05:06:39;;;;;;;9.63;7.43;;;10.90;43.70;;;;;;5056190;28;20064;-65
2021/05/13 05:09:27;;;;;;;10.82;7.47;;;13.30;18.50;;;;;;5062445;28;20082;-65
2021/05/13 05:12:15;;;;;;;8.48;6.50;;;15.30;2.90;;;;;;5063873;28;20115;-65
2021/05/13 05:15:04;;;;;;;13.40;6.43;;;15.70;1.00;;;;;;5059795;28;20137;-65
2021/05/13 05:17:52;;;;;;;8.85;5.85;;;16.30;1.00;;;;;;5060235;28;20036;-66
2021/05/13 05:20:40;;;;;;;14.45;6.60;;;16.50;1.00;;;;;;5056855;28;20166;-66
2021/05/13 05:23:29;;;;;;;8.98;6.13;;;13.90;4.10;;;;;;5057679;28;20051;-66
2021/05/13 05:26:17;;;;;;;8.88;6.00;;;13.20;9.70;;;;;;5059056;28;20052;-66
2021/05/13 05:29:05;;;;;;;8.85;5.53;;;13.20;9.60;;;;;;5057561;28;20134;-65
2021/05/13 05:31:53;;;;;;;10.07;6.38;;;15.60;1.00;;;;;;5059556;28;20168;-66
2021/05/13 05:34:41;;;;;;;7.95;5.38;;;15.00;1.00;;;;;;5059611;28;20041;-65
2021/05/13 05:37:30;;;;;;;9.55;6.13;;;15.60;1.00;;;;;;5044064;28;20615;-66
2021/05/13 05:40:18;;;;;;;9.07;6.25;;;17.50;1.00;;;;;;5065436;28;20051;-66
2021/05/13 05:43:07;;;;;;;12.68;6.60;;;16.90;1.00;;;;;;5062188;28;20092;-65
2021/05/13 05:45:56;;;;;;;8.10;6.60;;;16.60;1.00;;;;;;5056059;28;20049;-65
2021/05/13 05:48:44;;;;;;;9.75;6.38;;;16.10;1.00;;;;;;5060602;28;20648;-65
2021/05/13 05:51:32;;;;;;;9.23;6.50;;;15.90;1.00;;;;;;5058346;28;20135;-66
2021/05/13 05:54:21;;;;;;;10.27;6.88;;;14.60;3.40;;;;;;5062143;28;20110;-65
2021/05/13 05:57:09;;;;;;;10.02;6.43;;;14.20;5.40;;;;;;5060225;28;20052;-67
2021/05/13 05:59:58;;;;;;;9.88;5.93;;;14.20;5.80;;;;;;5044788;28;20040;-65
2021/05/13 06:02:46;;;;;;;7.25;5.10;;;14.40;6.00;;;;;;5045185;28;20114;-67
2021/05/13 06:05:34;;;;;;;7.82;4.75;;;14.20;3.20;;;;;;5058589;28;20053;-65
2021/05/13 06:08:22;;;;;;;7.13;5.38;;;14.30;1.20;;;;;;5054918;28;20064;-66
2021/05/13 06:11:11;;;;;;;10.05;4.88;;;14.50;1.00;;;;;;5057256;28;20096;-67
2021/05/13 06:13:59;;;;;;;7.45;4.60;;;14.70;1.00;;;;;;5055635;28;20052;-66
2021/05/13 06:16:47;;;;;;;5.22;3.40;;;16.20;1.00;;;;;;5046658;28;20055;-67
2021/05/13 06:19:35;;;;;;;5.22;3.40;;;16.90;1.00;;;;;;5041538;28;20377;-65
2021/05/13 06:22:23;;;;;;;5.38;3.75;;;17.50;1.00;;;;;;5054342;28;20080;-65
2021/05/13 06:25:12;;;;;;;7.88;4.30;;;16.80;1.00;;;;;;5064842;28;20122;-64
2021/05/13 06:28:01;;;;;;;4.53;3.42;;;16.90;1.00;;;;;;5059182;28;20144;-65
2021/05/13 06:30:49;;;;;;;7.57;5.05;;;17.00;1.00;;;;;;5061911;28;20094;-66
2021/05/13 06:33:37;;;;;;;6.53;5.10;;;16.70;1.00;;;;;;5050440;28;20121;-65
2021/05/13 06:36:25;;;;;;;9.52;5.43;;;15.60;1.00;;;;;;5063397;28;20147;-65
2021/05/13 06:39:13;;;;;;;9.95;5.10;;;15.10;1.00;;;;;;5062900;28;20045;-66
2021/05/13 06:42:02;;;;;;;8.10;5.18;;;15.00;1.00;;;;;;5067374;28;20536;-66
2021/05/13 06:44:52;;;;;;;8.50;5.63;;;14.80;1.00;;;;;;5063246;28;20102;-67
2021/05/13 06:47:40;;;;;;;6.18;4.70;;;15.20;1.00;;;;;;5057621;28;20045;-66
2021/05/13 06:50:28;;;;;;;5.40;4.10;;;14.50;1.00;;;;;;5061285;28;20041;-65
2021/05/13 06:53:16;;;;;;;6.65;4.18;;;14.70;1.00;;;;;;5062650;28;20116;-65
2021/05/13 06:56:05;;;;;;;5.63;4.35;;;14.50;1.00;;;;;;5065220;28;20040;-66
2021/05/13 06:58:53;;;;;;;7.95;4.90;;;15.20;1.00;;;;;;5063581;28;20143;-65
2021/05/13 07:01:41;;;;;;;9.07;4.65;;;15.10;1.00;;;;;;5060969;28;20056;-66
2021/05/13 07:04:31;;;;;;;8.15;4.18;;;14.90;1.00;;;;;;5063052;28;20052;-66
2021/05/13 07:07:19;;;;;;;6.75;3.78;;;15.00;1.00;;;;;;5061313;28;20076;-66
2021/05/13 07:10:08;;;;;;;6.95;3.55;;;15.60;1.00;;;;;;5058180;28;20572;-65
2021/05/13 07:12:56;;;;;;;7.63;4.10;;;15.70;1.00;;;;;;5061507;28;20106;-66
2021/05/13 07:15:52;;;;;;;5.13;3.97;;;15.90;1.00;;;;;;5049735;28;20462;-66
2021/05/13 07:18:40;;;;;;;6.10;3.50;;;15.80;1.00;;;;;;5062616;28;20089;-65
2021/05/13 07:21:28;;;;;;;7.45;4.13;;;15.70;1.00;;;;;;5046055;28;20066;-65
2021/05/13 07:24:16;;;;;;;7.10;4.10;;;16.20;1.00;;;;;;5059913;28;20127;-67
2021/05/13 07:27:09;;;;;;;6.70;4.22;;;16.20;1.00;;;;;;5056138;28;20186;-65
2021/05/13 07:29:57;;;;;;;6.88;4.00;;;16.40;1.00;;;;;;5062284;28;20037;-64
2021/05/13 07:32:46;;;;;;;5.90;3.40;;;16.60;1.00;;;;;;5062659;28;20134;-65
2021/05/13 07:35:36;;;;;;;7.75;3.50;;;16.50;1.00;;;;;;5044117;28;20103;-66
2021/05/13 07:38:24;;;;;;;3.55;2.90;;;17.20;1.00;;;;;;5061495;28;20051;-65
2021/05/13 07:41:14;;;;;;;8.45;3.00;;;17.10;1.00;;;;;;5067430;28;20084;-66
2021/05/13 07:44:02;;;;;;;3.75;2.70;;;16.70;1.00;;;;;;5063237;28;20423;-66
2021/05/13 07:46:49;;;;;;;3.83;2.28;;;16.60;1.00;;;;;;5063284;28;20041;-66
2021/05/13 07:49:38;;;;;;;6.25;2.60;;;16.20;1.00;;;;;;5060189;28;20045;-66
2021/05/13 07:52:27;;;;;;;7.00;2.70;;;16.50;1.00;;;;;;5059718;28;20049;-66
2021/05/13 07:55:15;;;;;;;3.83;2.45;;;16.30;1.00;;;;;;5061386;28;20085;-64
2021/05/13 07:58:03;;;;;;;5.25;3.10;;;16.40;1.00;;;;;;5061273;28;20048;-65
2021/05/13 08:00:51;;;;;;;4.82;3.10;;;16.20;1.00;;;;;;5057278;28;20287;-66
2021/05/13 08:03:40;;;;;;;6.22;3.10;;;15.80;1.00;;;;;;5059383;28;20615;-65
2021/05/13 08:06:28;;;;;;;4.95;3.05;;;15.90;1.00;;;;;;5051392;28;20130;-65
2021/05/13 08:09:16;;;;;;;4.05;3.17;;;15.90;1.00;;;;;;5062517;28;20088;-65
2021/05/13 08:12:05;;;;;;;5.55;2.92;;;15.80;1.00;;;;;;5057907;28;20036;-65
2021/05/13 08:14:53;;;;;;;6.63;3.17;;;16.00;1.00;;;;;;5048280;28;20075;-65
2021/05/13 08:17:41;;;;;;;6.97;2.92;;;15.60;1.00;;;;;;5061712;28;20103;-65
2021/05/13 08:20:33;;;;;;;6.03;3.40;;;15.90;1.00;;;;;;5063218;28;20045;-66
2021/05/13 08:23:24;;;;;;;4.43;2.50;;;16.40;1.00;;;;;;5051065;28;20040;-66
2021/05/13 08:26:13;;;;;;;3.67;2.60;;;16.40;1.00;;;;;;5058779;28;20178;-66
2021/05/13 08:29:01;;;;;;;4.03;2.50;;;16.30;1.00;;;;;;5060814;28;20045;-66
2021/05/13 08:31:49;;;;;;;5.82;2.97;;;15.90;1.00;;;;;;5055769;28;20124;-65
2021/05/13 08:34:37;;;;;;;5.22;2.83;;;15.80;1.00;;;;;;5061654;28;20102;-65
2021/05/13 08:37:25;;;;;;;5.35;2.33;;;15.70;1.00;;;;;;5061514;28;20145;-67
2021/05/13 08:40:13;;;;;;;3.40;2.63;;;16.00;1.00;;;;;;5057308;28;20048;-66
2021/05/13 08:43:02;;;;;;;9.23;3.03;;;15.90;1.00;;;;;;5061367;28;20059;-66
2021/05/13 08:45:52;;;;;;;6.88;2.90;;;16.20;1.00;;;;;;5059921;28;20052;-66
2021/05/13 08:48:40;;;;;;;5.03;2.63;;;15.90;1.00;;;;;;5059861;28;20523;-67
2021/05/13 08:51:28;;;;;;;3.95;2.60;;;16.10;1.00;;;;;;5059660;28;20085;-66
2021/05/13 08:54:15;;;;;;;5.00;2.88;;;16.00;1.00;;;;;;5057442;28;20099;-67
2021/05/13 08:57:04;;;;;;;4.85;2.40;;;15.70;1.00;;;;;;5057554;28;20099;-65
2021/05/13 08:59:53;;;;;;;5.15;2.38;;;15.90;1.00;;;;;;5060370;28;20653;-65
2021/05/13 09:02:49;;;;;;;3.15;2.10;;;15.80;1.00;;;;;;5056250;28;20186;-65
2021/05/13 09:05:50;;;;;;;3.85;2.15;;;16.30;1.00;;;;;;5055389;28;20118;-66
2021/05/13 09:08:38;;;;;;;5.32;2.42;;;16.80;1.00;;;;;;5044014;28;20037;-66
2021/05/13 09:11:26;;;;;;;4.65;2.55;;;17.40;1.00;;;;;;5056750;28;20056;-67
2021/05/13 09:14:20;;;;;;;4.43;2.40;;;17.70;1.00;;;;;;5059772;28;20275;-66
2021/05/13 09:17:24;;;;;;;3.55;2.35;;;17.70;1.00;;;;;;5042177;28;20398;-66
2021/05/13 09:20:31;;;;;;;4.20;2.55;;;17.20;1.00;;;;;;5055577;28;20045;-66
2021/05/13 09:23:23;;;;;;;5.57;2.63;;;16.00;1.00;;;;;;5057963;28;20084;-66
2021/05/13 09:26:12;;;;;;;7.03;2.60;;;17.20;1.00;;;;;;5048700;28;20110;-65
2021/05/13 09:29:09;;;;;;;3.83;2.25;;;16.70;1.00;;;;;;5045399;28;20064;-66
2021/05/13 09:31:57;;;;;;;5.18;2.10;;;16.60;1.00;;;;;;5057991;28;20517;-67
2021/05/13 09:34:46;;;;;;;3.53;1.65;;;16.90;1.00;;;;;;5058863;28;20123;-66
2021/05/13 09:37:40;;;;;;;5.30;1.88;;;17.30;1.00;;;;;;5056407;28;20068;-66
2021/05/13 09:40:37;;;;;;;3.53;1.65;;;17.10;1.00;;;;;;5060458;28;20057;-65
2021/05/13 09:43:29;;;;;;;4.68;2.20;;;17.00;1.00;;;;;;5062319;28;20063;-66
2021/05/13 09:46:31;;;;;;;3.25;1.65;;;16.70;1.00;;;;;;5055484;28;20482;-66
2021/05/13 09:49:19;;;;;;;4.18;1.90;;;16.90;1.00;;;;;;5056946;28;20044;-66
2021/05/13 09:52:08;;;;;;;4.00;1.75;;;17.10;1.00;;;;;;5057937;28;20397;-65
2021/05/13 09:55:11;;;;;;;3.22;1.40;;;17.10;1.00;;;;;;5058450;28;20249;-66
2021/05/13 09:58:06;;;;;;;2.47;1.20;;;16.80;1.00;;;;;;5054867;28;20166;-66
2021/05/13 10:00:54;;;;;;;3.03;1.80;;;17.20;1.00;;;;;;5045159;28;20047;-65
2021/05/13 10:03:43;;;;;;;5.13;2.40;;;17.20;1.00;;;;;;5059683;28;20468;-66
2021/05/13 10:06:32;;;;;;;5.13;1.77;;;17.00;1.00;;;;;;5060349;28;20083;-66
2021/05/13 10:09:21;;;;;;;3.45;1.40;;;16.90;1.00;;;;;;5053459;28;20050;-66
2021/05/13 10:12:10;;;;;;;3.92;1.50;;;17.40;1.00;;;;;;5060814;28;20583;-66
2021/05/13 10:14:59;;;;;;;3.47;1.30;;;17.30;1.00;;;;;;5056553;28;20128;-65
2021/05/13 10:17:51;;;;;;;3.03;1.42;;;17.00;1.00;;;;;;5057330;28;20072;-66
2021/05/13 10:20:40;;;;;;;3.90;1.20;;;16.90;1.00;;;;;;5061927;28;20072;-66
2021/05/13 10:23:29;;;;;;;2.15;1.17;;;17.00;1.00;;;;;;5056899;28;20048;-66
2021/05/13 10:26:42;;;;;;;3.03;1.80;;;17.40;1.00;;;;;;5060210;28;20040;-66
2021/05/13 10:29:35;;;;;;;4.35;1.92;;;17.00;1.00;;;;;;5057718;28;20091;-67
2021/05/13 10:32:31;;;;;;;4.07;1.40;;;17.50;1.00;;;;;;5056448;28;20512;-67
2021/05/13 10:35:24;;;;;;;1.38;1.00;;;16.90;1.00;;;;;;5056113;28;20064;-65
2021/05/13 10:38:13;;;;;;;3.28;1.40;;;16.60;1.00;;;;;;5058804;28;20052;-66
2021/05/13 10:41:38;;;;;;;3.65;1.10;;;16.90;1.00;;;;;;5057382;28;20138;-67
2021/05/13 10:44:38;;;;;;;5.47;1.30;;;16.80;1.00;;;;;;5055112;28;20079;-66
2021/05/13 10:47:28;;;;;;;5.28;1.42;;;17.50;1.00;;;;;;5056591;28;20055;-66
2021/05/13 10:50:30;;;;;;;3.58;1.63;;;17.20;1.00;;;;;;5063386;28;20114;-67
2021/05/13 10:53:40;;;;;;;3.33;1.40;;;17.10;1.00;;;;;;5059371;28;20515;-67
2021/05/13 10:56:35;;;;;;;6.55;1.27;;;17.00;1.00;;;;;;5052246;28;20045;-66
2021/05/13 10:59:24;;;;;;;5.00;1.52;;;17.40;1.00;;;;;;5059324;28;20123;-66
2021/05/13 11:02:36;;;;;;;2.65;1.10;;;17.90;1.00;;;;;;5057171;28;20134;-65
2021/05/13 11:05:41;;;;;;;2.83;1.48;;;17.90;1.00;;;;;;5059540;28;20056;-65
2021/05/13 11:08:44;;;;;;;3.53;1.60;;;18.00;1.00;;;;;;5057730;28;20511;-69
2021/05/13 11:12:10;;;;;;;2.22;1.38;;;18.00;1.00;;;;;;5056553;28;20106;-67
2021/05/13 11:15:23;;;;;;;2.40;1.23;;;18.30;1.00;;;;;;5060566;28;20075;-68
2021/05/13 11:18:13;;;;;;;6.07;1.50;;;18.00;1.00;;;;;;5058645;28;20116;-67
2021/05/13 11:21:01;;;;;;;3.38;1.30;;;17.00;1.00;;;;;;5064177;28;20186;-67
2021/05/13 11:23:49;;;;;;;5.13;1.33;;;18.00;1.00;;;;;;5065661;28;20041;-67
2021/05/13 11:26:38;;;;;;;4.97;1.40;;;17.90;1.00;;;;;;5058142;28;20045;-67
2021/05/13 11:29:26;;;;;;;3.40;1.27;;;17.50;1.00;;;;;;5041856;28;20053;-67
2021/05/13 11:32:27;;;;;;;4.28;1.42;;;17.20;1.00;;;;;;5062637;28;20508;-67
2021/05/13 11:35:17;;;;;;;3.97;1.13;;;17.60;1.00;;;;;;5051608;28;20048;-67
2021/05/13 11:38:20;;;;;;;4.20;1.30;;;17.80;1.00;;;;;;5059776;28;20592;-67
2021/05/13 11:41:09;;;;;;;3.50;1.13;;;17.30;1.00;;;;;;5055288;28;20056;-67
2021/05/13 11:43:57;;;;;;;2.28;0.80;;;17.60;1.00;;;;;;5052818;28;20048;-68
2021/05/13 11:46:45;;;;;;;2.38;1.10;;;17.30;1.00;;;;;;5060661;28;20080;-66
2021/05/13 11:49:36;;;;;;;2.13;1.13;;;16.70;1.00;;;;;;5036870;28;20041;-67
2021/05/13 11:52:24;;;;;;;3.08;1.33;;;16.80;1.00;;;;;;5065901;28;20055;-68
2021/05/13 11:55:30;;;;;;;5.50;1.92;;;17.10;1.00;;;;;;5048885;28;20091;-67
2021/05/13 11:58:38;;;;;;;2.33;1.23;;;16.60;1.00;;;;;;5043733;28;20052;-68
2021/05/13 12:01:29;;;;;;;3.95;2.10;;;16.90;1.00;;;;;;5054531;28;20072;-67
2021/05/13 12:04:21;;;;;;;10.07;1.40;;;17.50;1.00;;;;;;5047783;28;20037;-67
2021/05/13 12:07:15;;;;;;;2.15;1.45;;;17.50;1.00;;;;;;5051952;28;20119;-67
2021/05/13 12:10:04;;;;;;;4.38;1.45;;;17.70;1.00;;;;;;5051834;28;20579;-67
2021/05/13 12:13:02;;;;;;;2.13;1.60;;;18.30;1.00;;;;;;5043551;28;20123;-66
2021/05/13 12:16:02;;;;;;;3.85;1.58;;;18.70;1.00;;;;;;5038650;28;20065;-68
2021/05/13 12:18:52;;;;;;;2.95;1.55;;;17.90;1.00;;;;;;5051718;28;20342;-68
2021/05/13 12:21:41;;;;;;;5.07;1.83;;;19.00;1.00;;;;;;5049621;28;20045;-68
2021/05/13 12:24:31;;;;;;;3.03;1.45;;;18.50;1.00;;;;;;5048074;28;20516;-68
2021/05/13 12:27:32;;;;;;;1.77;1.20;;;18.40;1.00;;;;;;5047311;28;20048;-68
2021/05/13 12:30:21;;;;;;;2.00;1.73;;;18.30;1.00;;;;;;5053621;28;20064;-67
2021/05/13 12:33:21;;;;;;;2.78;1.20;;;18.60;1.00;;;;;;5039723;28;20055;-68
2021/05/13 12:36:11;;;;;;;3.20;1.35;;;18.50;1.00;;;;;;5039098;28;20079;-67
2021/05/13 12:39:01;;;;;;;3.38;1.35;;;17.60;1.00;;;;;;5053062;28;20128;-68
2021/05/13 12:41:49;;;;;;;5.45;2.05;;;18.20;1.00;;;;;;5055169;28;20184;-68
2021/05/13 12:44:38;;;;;;;1.65;0.80;;;18.50;1.00;;;;;;5051749;28;20131;-68
2021/05/13 12:47:26;;;;;;;1.55;0.90;;;17.70;1.00;;;;;;5048102;28;20053;-67
2021/05/13 12:50:14;;;;;;;3.92;1.30;;;17.50;1.00;;;;;;5050470;28;20052;-67
2021/05/13 12:53:10;;;;;;;6.75;1.50;;;17.10;1.00;;;;;;5021064;28;20041;-68
2021/05/13 12:55:58;;;;;;;3.92;1.40;;;16.90;1.00;;;;;;5050772;28;20071;-68
2021/05/13 12:58:47;;;;;;;2.53;1.02;;;17.70;1.00;;;;;;5048717;28;20049;-67
2021/05/13 13:01:36;;;;;;;1.67;1.00;;;18.10;1.00;;;;;;5048396;28;20052;-68
2021/05/13 13:04:24;;;;;;;1.85;0.90;;;17.90;1.00;;;;;;5042217;28;20590;-67
2021/05/13 13:07:12;;;;;;;2.25;1.00;;;17.00;1.00;;;;;;5044716;28;20056;-67
2021/05/13 13:10:23;;;;;;;1.67;1.13;;;17.20;1.00;;;;;;5048913;28;20154;-68
2021/05/13 13:13:13;;;;;;;2.88;0.80;;;17.30;1.00;;;;;;5038479;28;20048;-68
2021/05/13 13:16:14;;;;;;;3.95;1.10;;;16.60;1.00;;;;;;5053199;28;20515;-68
2021/05/13 13:19:04;;;;;;;2.78;1.58;;;16.80;1.00;;;;;;5047318;28;20048;-68
2021/05/13 13:21:59;;;;;;;4.35;1.15;;;16.80;1.00;;;;;;5057687;28;20047;-67
2021/05/13 13:25:00;;;;;;;5.85;1.10;;;16.10;1.00;;;;;;5049835;28;20475;-67
2021/05/13 13:27:48;;;;;;;1.80;0.90;;;16.20;1.00;;;;;;5040353;28;20171;-67
2021/05/13 13:30:36;;;;;;;2.28;0.60;;;16.30;1.00;;;;;;5041347;28;20057;-66
2021/05/13 13:33:27;;;;;;;2.35;0.60;;;16.00;1.00;;;;;;5009579;28;20049;-67
2021/05/13 13:36:14;;;;;;;3.35;0.88;;;16.20;1.00;;;;;;5024923;28;20048;-68
2021/05/13 13:39:03;;;;;;;1.35;0.90;;;16.10;1.00;;;;;;5033851;28;20056;-67
2021/05/13 13:41:51;;;;;;;3.33;1.10;;;16.70;1.00;;;;;;5051393;28;20496;-67
2021/05/13 13:44:39;;;;;;;4.28;1.23;;;16.60;1.00;;;;;;4945237;28;20060;-67
2021/05/13 13:47:27;;;;;;;3.03;0.90;;;16.40;1.00;;;;;;5007227;28;158720;-67
2021/05/13 13:50:16;;;;;;;2.50;0.90;;;16.90;1.00;;;;;;5071220;28;20040;-68
2021/05/13 13:53:05;;;;;;;3.25;0.98;;;16.80;1.00;;;;;;5040969;28;20060;-68
2021/05/13 13:55:54;;;;;;;2.60;0.57;;;16.40;1.00;;;;;;5071769;28;20087;-68
2021/05/13 13:58:43;;;;;;;2.75;1.15;;;16.20;1.00;;;;;;5067986;28;20535;-68
2021/05/13 14:01:31;;;;;;;1.05;0.85;;;17.00;1.00;;;;;;5062693;28;20114;-67
2021/05/13 14:04:19;;;;;;;1.80;0.90;;;15.40;1.00;;;;;;5057345;28;20044;-67
2021/05/13 14:07:08;;;;;;;2.80;1.27;;;14.60;1.00;;;;;;5067523;28;20052;-67
2021/05/13 14:09:56;;;;;;;2.55;1.00;;;14.90;1.00;;;;;;5068623;28;20047;-67
2021/05/13 14:12:46;;;;;;;2.55;0.80;;;15.40;1.00;;;;;;5047538;28;20815;-68
2021/05/13 14:15:34;;;;;;;2.42;0.80;;;14.90;1.00;;;;;;5071882;28;20539;-66
2021/05/13 14:18:22;;;;;;;1.30;0.90;;;15.10;1.00;;;;;;5041263;28;20044;-67
2021/05/13 14:21:10;;;;;;;1.50;0.80;;;14.90;1.00;;;;;;5074413;28;20055;-66
2021/05/13 14:23:59;;;;;;;1.05;0.60;;;14.60;1.00;;;;;;5062941;28;20153;-67
2021/05/13 14:26:47;;;;;;;1.30;0.57;;;15.00;1.00;;;;;;5074290;28;20137;-66
2021/05/13 14:29:35;;;;;;;1.08;0.30;;;14.40;1.00;;;;;;5068163;28;20820;-66
2021/05/13 14:32:23;;;;;;;0.85;0.40;;;14.40;1.00;;;;;;5061166;28;20178;-67
2021/05/13 14:35:12;;;;;;;0.85;0.70;;;14.50;1.00;;;;;;5073080;28;20044;-67
2021/05/13 14:38:02;;;;;;;2.42;0.60;;;14.50;1.00;;;;;;5067564;28;20555;-68
2021/05/13 14:40:50;;;;;;;0.50;0.50;;;14.20;1.00;;;;;;5069707;28;20040;-68
2021/05/13 14:43:38;;;;;;;0.60;0.40;;;14.60;1.00;;;;;;5061849;28;20055;-66
2021/05/13 14:46:26;;;;;;;1.80;0.50;;;14.30;1.00;;;;;;5075161;28;20047;-68
2021/05/13 14:49:22;;;;;;;1.05;0.60;;;14.50;1.00;;;;;;5073573;28;20135;-67
2021/05/13 14:52:10;;;;;;;2.08;0.90;;;15.00;1.00;;;;;;5073457;28;20411;-67